KLAF/LAF METAR and TAF weather

Enter ICAO airport designator
Station Type Date Time Source
KLAF METAR 2022/06/27 08:54 UTC NOAA

KLAF 270854Z AUTO 31004KT 10SM CLR 14/11 A3016 RMK AO2 SLP210 T01390111 51003


Station Type Date Time Source
KLAF Decoded METAR 2022/06/27 08:54 UTC NOAA

LAFAYETTE PURDUE UNIV AIRPORT , IN, United States (KLAF) 40-25N 86-57W 182M
Jun 27, 2022 - 04:54 AM EDT / 2022.06.27 0854 UTC
Wind: from the NW (310 degrees) at 5 MPH (4 KT):0
Visibility: 10 mile(s):0
Sky conditions: clear
Temperature: 57.0 F (13.9 C)
Dew Point: 52.0 F (11.1 C)
Relative Humidity: 83%
Pressure (altimeter): 30.16 in. Hg (1021 hPa)
Pressure tendency: 0.01 inches (0.3 hPa) higher than three hours ago
ob: KLAF 270854Z AUTO 31004KT 10SM CLR 14/11 A3016 RMK AO2 SLP210 T01390111 51003
cycle: 9

Station Type Date Time Source
KLAF TAF 2022/06/27 06:22 UTC NOAA

TAF KLAF 270520Z 2706/2806 33007KT P6SM SCT250
FM280000 36005KT P6SM SCT180
AMD LTD TO CLD VIS AND WIND TIL 271300

Example: see airport list